createdAt,value
2022-11-29T00:01:12.977Z,9.55
2022-11-29T00:03:40.355Z,9.38
2022-11-29T00:06:10.094Z,9.75
2022-11-29T00:11:05.905Z,8.18
2022-11-29T00:13:33.452Z,9.35
2022-11-29T00:16:04.615Z,11.63
2022-11-29T00:18:33.551Z,9.82
2022-11-29T00:21:04.822Z,10.38
2022-11-29T00:23:32.177Z,10.57
2022-11-29T00:26:04.310Z,9.52
2022-11-29T00:28:31.710Z,9.88
2022-11-29T00:30:59.086Z,9.73
2022-11-29T00:33:27.113Z,12.80
2022-11-29T00:35:56.210Z,9.35
2022-11-29T00:38:23.583Z,9.90
2022-11-29T00:40:51.923Z,10.98
2022-11-29T00:43:19.233Z,9.65
2022-11-29T00:45:47.109Z,10.43
2022-11-29T00:48:14.457Z,9.75
2022-11-29T00:50:41.754Z,10.32
2022-11-29T00:53:10.568Z,11.18
2022-11-29T00:55:37.876Z,12.10
2022-11-29T00:58:05.228Z,9.45
2022-11-29T01:00:32.957Z,10.32
2022-11-29T01:03:00.289Z,10.27
2022-11-29T01:05:27.613Z,10.13
2022-11-29T01:07:55.031Z,10.48
2022-11-29T01:10:24.162Z,9.80
2022-11-29T01:12:51.572Z,11.27
2022-11-29T01:15:18.961Z,10.90
2022-11-29T01:17:46.299Z,9.60
2022-11-29T01:20:14.312Z,9.82
2022-11-29T01:22:42.254Z,10.07
2022-11-29T01:25:12.244Z,10.65
2022-11-29T01:27:41.794Z,10.20
2022-11-29T01:30:11.396Z,9.43
2022-11-29T01:32:39.040Z,9.68
2022-11-29T01:35:07.318Z,23.05
2022-11-29T01:37:34.779Z,18.67
2022-11-29T01:40:02.299Z,14.60
2022-11-29T01:42:30.165Z,10.73
2022-11-29T01:45:06.507Z,9.35
2022-11-29T01:47:43.887Z,9.95
2022-11-29T01:50:11.278Z,9.80
2022-11-29T01:52:39.271Z,9.38
2022-11-29T01:55:09.079Z,8.65
2022-11-29T01:57:41.153Z,8.70
2022-11-29T02:00:13.557Z,9.27
2022-11-29T02:02:44.360Z,9.75
2022-11-29T02:05:14.884Z,9.52
2022-11-29T02:07:46.144Z,9.25
2022-11-29T02:10:14.373Z,7.93
2022-11-29T02:12:53.173Z,9.48
2022-11-29T02:15:42.750Z,9.37
2022-11-29T02:18:13.111Z,9.38
2022-11-29T02:21:07.898Z,10.95
2022-11-29T02:24:24.089Z,9.40
2022-11-29T02:27:26.331Z,9.10
2022-11-29T02:30:19.295Z,10.32
2022-11-29T02:33:32.682Z,9.15
2022-11-29T02:36:24.299Z,9.00
2022-11-29T02:39:14.401Z,9.63
2022-11-29T02:42:06.619Z,9.57
2022-11-29T02:44:54.228Z,9.52
2022-11-29T02:47:48.766Z,10.27
2022-11-29T02:50:29.870Z,9.90
2022-11-29T02:53:11.314Z,9.52
2022-11-29T02:55:46.571Z,10.20
2022-11-29T02:58:23.792Z,8.52
2022-11-29T03:01:01.222Z,10.63
2022-11-29T03:03:37.174Z,9.40
2022-11-29T03:06:13.239Z,8.77
2022-11-29T03:08:50.247Z,8.85
2022-11-29T03:11:28.591Z,8.45
2022-11-29T03:14:08.642Z,10.75
2022-11-29T03:16:43.723Z,9.40
2022-11-29T03:19:27.020Z,9.70
2022-11-29T03:22:04.980Z,9.95
2022-11-29T03:24:40.824Z,9.07
2022-11-29T03:27:13.068Z,9.73
2022-11-29T03:29:45.887Z,9.00
2022-11-29T03:32:22.878Z,9.32
2022-11-29T03:35:01.207Z,9.55
2022-11-29T03:37:35.247Z,8.60
2022-11-29T03:40:07.487Z,9.00
2022-11-29T03:42:38.551Z,9.23
2022-11-29T03:45:11.918Z,9.45
2022-11-29T03:47:48.947Z,10.15
2022-11-29T03:50:23.271Z,9.85
2022-11-29T03:52:54.785Z,10.75
2022-11-29T03:55:52.523Z,10.52
2022-11-29T03:58:34.452Z,11.50
2022-11-29T04:01:40.648Z,9.95
2022-11-29T04:04:54.885Z,11.25
2022-11-29T04:07:44.453Z,11.52
2022-11-29T04:10:34.512Z,13.38
2022-11-29T04:13:35.591Z,9.85
2022-11-29T04:16:31.464Z,10.30
2022-11-29T04:19:38.367Z,10.18
2022-11-29T04:22:26.092Z,10.90
2022-11-29T04:25:14.447Z,11.23
2022-11-29T04:27:52.218Z,10.57
2022-11-29T04:30:23.140Z,12.73
2022-11-29T04:33:19.795Z,10.52
2022-11-29T04:36:25.568Z,10.40
2022-11-29T04:39:29.480Z,10.32
2022-11-29T04:42:25.890Z,12.32
2022-11-29T04:45:10.302Z,13.38
2022-11-29T04:47:50.152Z,11.63
2022-11-29T04:50:37.832Z,10.55
2022-11-29T04:53:25.834Z,13.88
2022-11-29T04:56:01.069Z,10.48
2022-11-29T04:58:37.774Z,10.20
2022-11-29T05:01:11.747Z,10.82
2022-11-29T05:03:49.329Z,12.35
2022-11-29T05:06:25.450Z,12.57
2022-11-29T05:09:03.655Z,11.68
2022-11-29T05:11:44.584Z,12.35
2022-11-29T05:14:24.219Z,14.32
2022-11-29T05:17:01.135Z,14.13
2022-11-29T05:20:01.533Z,11.82
2022-11-29T05:22:36.092Z,13.68
2022-11-29T05:25:22.161Z,12.85
2022-11-29T05:27:56.921Z,13.05
2022-11-29T05:30:31.176Z,14.35
2022-11-29T05:33:10.276Z,15.52
2022-11-29T05:36:02.570Z,14.57
2022-11-29T05:38:47.372Z,15.13
2022-11-29T05:41:37.681Z,15.52
2022-11-29T05:44:11.760Z,14.90
2022-11-29T05:46:49.658Z,17.45
2022-11-29T05:49:28.775Z,15.90
2022-11-29T05:52:08.147Z,14.88
2022-11-29T05:54:41.462Z,15.68
2022-11-29T05:57:14.644Z,15.35
2022-11-29T05:59:44.418Z,16.33
2022-11-29T06:05:04.493Z,15.57
2022-11-29T06:07:39.449Z,15.18
2022-11-29T06:10:12.167Z,15.45
2022-11-29T06:12:42.644Z,15.23
2022-11-29T06:15:31.219Z,14.38
2022-11-29T06:18:14.992Z,15.48
2022-11-29T06:21:05.162Z,15.93
2022-11-29T06:23:53.290Z,14.98
2022-11-29T06:26:35.917Z,16.23
2022-11-29T06:29:20.412Z,15.77
2022-11-29T06:31:55.354Z,17.40
2022-11-29T06:34:31.123Z,15.98
2022-11-29T06:37:04.928Z,17.15
2022-11-29T06:39:34.554Z,17.23
2022-11-29T06:42:01.924Z,16.92
2022-11-29T06:44:29.730Z,17.67
2022-11-29T06:47:05.292Z,16.85
2022-11-29T06:49:39.179Z,17.50
2022-11-29T06:52:17.360Z,18.35
2022-11-29T06:55:00.868Z,19.60
2022-11-29T06:57:37.909Z,18.98
2022-11-29T07:00:13.608Z,17.98
2022-11-29T07:03:02.183Z,17.80
2022-11-29T07:05:31.341Z,18.17
2022-11-29T07:08:03.053Z,18.27
2022-11-29T07:10:36.825Z,17.45
2022-11-29T07:13:05.182Z,19.75
2022-11-29T07:15:33.362Z,17.73
2022-11-29T07:18:14.562Z,16.73
2022-11-29T07:20:50.129Z,18.40
2022-11-29T07:23:27.269Z,16.70
2022-11-29T07:26:09.249Z,18.17
2022-11-29T07:28:46.170Z,17.40
2022-11-29T07:31:25.987Z,16.60
2022-11-29T07:34:00.932Z,17.13
2022-11-29T07:36:39.510Z,17.85
2022-11-29T07:39:22.239Z,17.77
2022-11-29T07:42:00.942Z,16.70
2022-11-29T07:44:44.219Z,17.63
2022-11-29T07:47:13.174Z,17.98
2022-11-29T07:49:40.551Z,19.90
2022-11-29T07:52:12.020Z,19.02
2022-11-29T07:54:40.825Z,17.42
2022-11-29T07:57:09.722Z,17.37
2022-11-29T07:59:37.186Z,17.93
2022-11-29T08:02:11.291Z,17.50
2022-11-29T08:04:41.804Z,17.73
2022-11-29T08:07:09.353Z,16.63
2022-11-29T08:09:36.889Z,16.52
2022-11-29T08:12:04.776Z,16.58
2022-11-29T08:14:33.818Z,15.90
2022-11-29T08:17:01.246Z,16.15
2022-11-29T08:19:28.670Z,18.25
2022-11-29T08:21:56.143Z,17.80
2022-11-29T08:24:23.749Z,18.10
2022-11-29T08:26:51.260Z,16.48
2022-11-29T08:29:18.866Z,17.48
2022-11-29T08:31:51.285Z,16.25
2022-11-29T08:34:19.040Z,16.45
2022-11-29T08:36:46.631Z,14.88
2022-11-29T08:39:13.991Z,15.25
2022-11-29T08:41:41.579Z,15.38
2022-11-29T08:44:09.198Z,14.07
2022-11-29T08:46:36.562Z,15.32
2022-11-29T08:49:05.843Z,14.45
2022-11-29T08:51:33.200Z,14.35
2022-11-29T08:54:01.534Z,15.25
2022-11-29T08:59:16.417Z,16.20
2022-11-29T09:01:43.892Z,14.15
2022-11-29T09:04:13.173Z,15.18
2022-11-29T09:06:42.246Z,14.88
2022-11-29T09:09:09.715Z,14.53
2022-11-29T09:11:37.154Z,14.10
2022-11-29T09:14:07.295Z,13.38
2022-11-29T09:16:36.743Z,13.10
2022-11-29T09:19:05.382Z,14.02
2022-11-29T09:21:35.900Z,14.25
2022-11-29T09:24:05.168Z,35.47
2022-11-29T09:26:35.200Z,26.95
2022-11-29T09:29:06.169Z,18.60
2022-11-29T09:31:34.949Z,17.48
2022-11-29T09:34:02.977Z,17.17
2022-11-29T09:36:30.952Z,16.58
2022-11-29T09:39:01.347Z,16.10
2022-11-29T09:41:53.590Z,16.70
2022-11-29T09:44:30.328Z,16.80
2022-11-29T09:47:08.721Z,16.00
2022-11-29T09:49:55.683Z,16.53
2022-11-29T09:52:36.201Z,17.38
2022-11-29T09:55:20.438Z,18.60
2022-11-29T09:57:52.379Z,17.02
2022-11-29T10:00:20.787Z,18.55
2022-11-29T10:02:50.916Z,18.40
2022-11-29T10:05:23.879Z,19.42
2022-11-29T10:07:56.796Z,20.33
2022-11-29T10:10:30.086Z,19.05
2022-11-29T10:13:04.856Z,18.05
2022-11-29T10:15:39.280Z,18.73
2022-11-29T10:18:15.926Z,18.73
2022-11-29T10:20:49.258Z,17.98
2022-11-29T10:23:23.301Z,20.17
2022-11-29T10:25:54.897Z,19.08
2022-11-29T10:28:25.217Z,20.80
2022-11-29T10:30:55.596Z,19.88
2022-11-29T10:33:27.072Z,19.08
2022-11-29T10:35:58.595Z,19.83
2022-11-29T10:38:32.982Z,22.08
2022-11-29T10:41:07.065Z,19.55
2022-11-29T10:43:34.904Z,20.73
2022-11-29T10:46:02.307Z,20.90
2022-11-29T10:48:33.012Z,20.35
2022-11-29T10:51:01.334Z,18.65
2022-11-29T10:53:32.383Z,20.52
2022-11-29T10:56:06.009Z,19.63
2022-11-29T10:58:34.157Z,20.20
2022-11-29T11:01:03.510Z,19.40
2022-11-29T11:03:37.534Z,21.10
2022-11-29T11:06:10.919Z,18.33
2022-11-29T11:08:41.540Z,19.27
2022-11-29T11:11:11.981Z,18.95
2022-11-29T11:13:40.557Z,20.15
2022-11-29T11:16:11.468Z,18.42
2022-11-29T11:18:38.799Z,17.98
2022-11-29T11:21:10.802Z,17.30
2022-11-29T11:23:44.791Z,18.33
2022-11-29T11:26:14.798Z,19.38
2022-11-29T11:28:48.900Z,17.75
2022-11-29T11:31:25.688Z,17.58
2022-11-29T11:33:53.686Z,18.08
2022-11-29T11:36:24.012Z,17.27
2022-11-29T11:38:54.473Z,18.25
2022-11-29T11:41:27.179Z,18.02
2022-11-29T11:43:57.440Z,16.77
2022-11-29T11:46:49.696Z,18.23
2022-11-29T11:49:26.728Z,16.05
2022-11-29T11:51:54.741Z,16.95
2022-11-29T11:54:22.241Z,18.33
2022-11-29T11:56:52.118Z,20.05
2022-11-29T11:59:22.582Z,15.45
2022-11-29T12:01:50.530Z,15.05
2022-11-29T12:04:22.250Z,15.52
2022-11-29T12:06:52.057Z,15.45
2022-11-29T12:09:30.847Z,16.17
2022-11-29T12:12:09.631Z,15.60
2022-11-29T12:14:46.498Z,18.20
2022-11-29T12:17:22.206Z,17.60
2022-11-29T12:20:10.250Z,18.30
2022-11-29T12:22:48.031Z,18.95
2022-11-29T12:25:20.980Z,18.42
2022-11-29T12:27:51.120Z,17.23
2022-11-29T12:30:19.659Z,17.15
2022-11-29T12:33:01.102Z,16.45
2022-11-29T12:35:58.387Z,17.23
2022-11-29T12:38:44.388Z,19.40
2022-11-29T12:41:27.187Z,15.63
2022-11-29T12:44:04.945Z,15.50
2022-11-29T12:46:34.686Z,15.93
2022-11-29T12:51:44.394Z,13.82
2022-11-29T12:54:29.236Z,15.70
2022-11-29T12:57:05.494Z,14.88
2022-11-29T12:59:46.746Z,13.52
2022-11-29T13:02:25.642Z,15.25
2022-11-29T13:05:01.422Z,13.25
2022-11-29T13:07:40.588Z,13.52
2022-11-29T13:10:33.008Z,12.75
2022-11-29T13:13:11.899Z,14.02
2022-11-29T13:15:49.674Z,13.38
2022-11-29T13:18:26.109Z,13.48
2022-11-29T13:20:58.632Z,12.13
2022-11-29T13:23:45.845Z,12.65
2022-11-29T13:26:21.085Z,14.55
2022-11-29T13:28:49.406Z,13.07
2022-11-29T13:31:20.702Z,13.75
2022-11-29T13:33:58.220Z,12.40
2022-11-29T13:36:34.902Z,13.25
2022-11-29T13:39:14.921Z,14.82
2022-11-29T13:41:48.505Z,12.13
2022-11-29T13:44:23.785Z,13.15
2022-11-29T13:47:05.888Z,13.23
2022-11-29T13:49:54.432Z,12.18
2022-11-29T13:52:48.571Z,12.50
2022-11-29T13:55:23.540Z,12.27
2022-11-29T13:58:15.391Z,13.45
2022-11-29T14:00:50.174Z,12.38
2022-11-29T14:03:30.066Z,11.75
2022-11-29T14:06:09.142Z,13.30
2022-11-29T14:09:02.379Z,12.27
2022-11-29T14:11:31.743Z,12.48
2022-11-29T14:14:04.792Z,13.75
2022-11-29T14:16:36.624Z,13.15
2022-11-29T14:19:21.787Z,13.18
2022-11-29T14:22:17.915Z,12.52
2022-11-29T14:25:16.392Z,12.27
2022-11-29T14:27:56.569Z,14.38
2022-11-29T14:30:47.398Z,14.23
2022-11-29T14:33:51.378Z,13.70
2022-11-29T14:36:50.488Z,12.63
2022-11-29T14:39:30.422Z,12.90
2022-11-29T14:44:33.181Z,11.98
2022-11-29T14:47:06.868Z,13.18
2022-11-29T14:49:40.543Z,11.40
2022-11-29T14:52:31.437Z,12.40
2022-11-29T14:55:06.490Z,11.13
2022-11-29T14:57:54.011Z,11.93
2022-11-29T15:00:23.529Z,11.55
2022-11-29T15:02:55.008Z,11.18
2022-11-29T15:05:30.797Z,12.10
2022-11-29T15:08:09.412Z,11.85
2022-11-29T15:10:41.120Z,13.10
2022-11-29T15:13:12.291Z,10.82
2022-11-29T15:15:57.700Z,9.98
2022-11-29T15:18:47.485Z,9.88
2022-11-29T15:23:59.481Z,10.88
2022-11-29T15:26:26.914Z,10.95
2022-11-29T15:29:11.780Z,9.88
2022-11-29T15:31:41.897Z,11.02
2022-11-29T15:34:20.411Z,10.75
2022-11-29T15:36:48.303Z,9.93
2022-11-29T15:39:32.040Z,11.30
2022-11-29T15:42:06.608Z,13.05
2022-11-29T15:44:34.267Z,10.82
2022-11-29T15:47:23.643Z,11.95
2022-11-29T15:49:52.169Z,11.10
2022-11-29T15:52:26.179Z,11.32
2022-11-29T15:55:00.841Z,11.77
2022-11-29T15:57:33.005Z,12.77
2022-11-29T16:00:02.569Z,11.43
2022-11-29T16:02:34.318Z,11.05
2022-11-29T16:05:05.304Z,13.55
2022-11-29T16:07:33.020Z,11.77
2022-11-29T16:10:10.742Z,11.65
2022-11-29T16:12:52.172Z,11.13
2022-11-29T16:15:30.767Z,12.63
2022-11-29T16:18:04.123Z,12.15
2022-11-29T16:20:31.861Z,12.05
2022-11-29T16:23:04.753Z,12.07
2022-11-29T16:25:37.617Z,11.45
2022-11-29T16:28:11.502Z,11.73
2022-11-29T16:30:41.668Z,12.77
2022-11-29T16:33:19.371Z,11.88
2022-11-29T16:35:47.587Z,11.38
2022-11-29T16:38:20.559Z,13.77
2022-11-29T16:41:05.004Z,11.38
2022-11-29T16:43:51.318Z,11.68
2022-11-29T16:46:36.818Z,12.00
2022-11-29T16:49:33.421Z,11.73
2022-11-29T16:52:03.781Z,11.95
2022-11-29T16:54:33.204Z,10.60
2022-11-29T16:57:05.469Z,11.35
2022-11-29T16:59:33.163Z,11.88
2022-11-29T17:02:00.745Z,11.57
2022-11-29T17:04:28.248Z,11.55
2022-11-29T17:06:57.062Z,11.93
2022-11-29T17:09:26.496Z,11.80
2022-11-29T17:11:54.582Z,11.40
2022-11-29T17:14:23.787Z,12.27
2022-11-29T17:16:51.504Z,12.98
2022-11-29T17:19:19.704Z,12.35
2022-11-29T17:21:47.352Z,11.35
2022-11-29T17:24:17.272Z,10.48
2022-11-29T17:26:45.740Z,9.88
2022-11-29T17:29:15.595Z,10.68
2022-11-29T17:31:45.844Z,11.35
2022-11-29T17:34:13.925Z,10.32
2022-11-29T17:36:41.267Z,11.65
2022-11-29T17:39:09.426Z,10.68
2022-11-29T17:41:37.647Z,9.90
2022-11-29T17:44:06.814Z,11.93
2022-11-29T17:46:36.016Z,10.25
2022-11-29T17:49:06.941Z,9.95
2022-11-29T17:51:52.618Z,9.35
2022-11-29T17:54:20.328Z,10.00
2022-11-29T17:56:47.854Z,9.85
2022-11-29T17:59:15.480Z,9.63
2022-11-29T18:01:43.142Z,10.35
2022-11-29T18:04:12.537Z,10.90
2022-11-29T18:06:41.198Z,10.90
2022-11-29T18:09:10.355Z,9.52
2022-11-29T18:11:47.092Z,9.55
2022-11-29T18:14:17.361Z,9.35
2022-11-29T18:16:44.948Z,9.48
2022-11-29T18:19:15.761Z,10.70
2022-11-29T18:21:43.160Z,10.60
2022-11-29T18:24:11.259Z,10.73
2022-11-29T18:26:39.457Z,9.68
2022-11-29T18:29:07.763Z,10.02
2022-11-29T18:31:37.759Z,9.70
2022-11-29T18:34:07.189Z,11.02
2022-11-29T18:39:07.272Z,10.15
2022-11-29T18:44:04.426Z,9.52
2022-11-29T18:46:32.479Z,9.18
2022-11-29T18:49:00.710Z,8.98
2022-11-29T18:51:30.169Z,10.20
2022-11-29T18:53:59.646Z,9.43
2022-11-29T18:56:29.934Z,9.15
2022-11-29T18:58:59.369Z,9.07
2022-11-29T19:01:28.479Z,9.52
2022-11-29T19:03:59.199Z,8.35
2022-11-29T19:06:30.808Z,8.20
2022-11-29T19:09:05.034Z,8.68
2022-11-29T19:11:33.591Z,8.20
2022-11-29T19:14:03.347Z,9.50
2022-11-29T19:16:33.864Z,8.70
2022-11-29T19:19:02.176Z,8.80
2022-11-29T19:21:31.191Z,10.43
2022-11-29T19:24:00.067Z,9.40
2022-11-29T19:26:30.662Z,8.70
2022-11-29T19:28:59.722Z,8.68
2022-11-29T19:31:27.953Z,8.70
2022-11-29T19:33:56.128Z,8.68
2022-11-29T19:36:25.177Z,8.52
2022-11-29T19:38:54.344Z,8.23
2022-11-29T19:41:24.537Z,8.40
2022-11-29T19:43:55.957Z,8.88
2022-11-29T19:46:25.513Z,8.80
2022-11-29T19:51:21.190Z,9.77
2022-11-29T19:53:52.524Z,9.95
2022-11-29T19:56:20.009Z,10.75
2022-11-29T19:58:47.781Z,10.52
2022-11-29T20:01:18.274Z,10.93
2022-11-29T20:03:45.994Z,11.18
2022-11-29T20:06:14.274Z,12.40
2022-11-29T20:08:42.307Z,11.95
2022-11-29T20:11:11.886Z,12.02
2022-11-29T20:13:40.565Z,12.05
2022-11-29T20:16:10.544Z,12.18
2022-11-29T20:18:48.736Z,12.68
2022-11-29T20:21:19.990Z,13.43
2022-11-29T20:23:48.165Z,13.50
2022-11-29T20:26:18.824Z,14.18
2022-11-29T20:28:47.333Z,13.32
2022-11-29T20:31:16.540Z,13.00
2022-11-29T20:33:46.812Z,13.43
2022-11-29T20:36:27.778Z,13.30
2022-11-29T20:39:03.625Z,12.73
2022-11-29T20:41:38.200Z,12.68
2022-11-29T20:44:05.849Z,13.38
2022-11-29T20:46:33.591Z,11.60
2022-11-29T20:49:06.369Z,13.05
2022-11-29T20:51:40.139Z,12.63
2022-11-29T20:54:09.703Z,11.68
2022-11-29T20:56:37.180Z,13.00
2022-11-29T20:59:04.516Z,12.70
2022-11-29T21:01:31.940Z,13.52
2022-11-29T21:03:59.324Z,11.55
2022-11-29T21:06:28.131Z,12.07
2022-11-29T21:08:55.426Z,14.18
2022-11-29T21:11:24.074Z,13.23
2022-11-29T21:13:51.934Z,11.57
2022-11-29T21:16:26.689Z,11.77
2022-11-29T21:18:56.959Z,13.93
2022-11-29T21:24:03.022Z,12.02
2022-11-29T21:26:37.158Z,11.57
2022-11-29T21:29:14.935Z,11.60
2022-11-29T21:31:42.755Z,12.05
2022-11-29T21:34:10.256Z,11.95
2022-11-29T21:36:38.255Z,13.18
2022-11-29T21:39:10.882Z,10.90
2022-11-29T21:41:38.294Z,11.52
2022-11-29T21:44:07.527Z,11.85
2022-11-29T21:46:36.635Z,10.70
2022-11-29T21:49:05.031Z,12.57
2022-11-29T21:51:32.440Z,10.00
2022-11-29T21:53:59.767Z,11.15
2022-11-29T21:56:28.671Z,11.98
2022-11-29T21:58:55.950Z,11.27
2022-11-29T22:01:24.014Z,10.18
2022-11-29T22:03:53.641Z,9.35
2022-11-29T22:06:21.871Z,9.38
2022-11-29T22:08:49.875Z,10.40
2022-11-29T22:11:18.795Z,9.57
2022-11-29T22:13:48.103Z,9.90
2022-11-29T22:16:15.428Z,10.53
2022-11-29T22:18:42.935Z,11.48
2022-11-29T22:21:10.236Z,9.52
2022-11-29T22:23:37.561Z,10.60
2022-11-29T22:26:05.998Z,9.55
2022-11-29T22:28:34.152Z,8.77
2022-11-29T22:31:04.767Z,9.60
2022-11-29T22:33:32.288Z,9.65
2022-11-29T22:36:03.951Z,9.48
2022-11-29T22:38:31.728Z,10.30
2022-11-29T22:41:02.747Z,9.98
2022-11-29T22:43:31.533Z,9.63
2022-11-29T22:46:05.961Z,10.27
2022-11-29T22:48:38.408Z,12.23
2022-11-29T22:51:08.323Z,9.75
2022-11-29T22:53:36.447Z,11.27
2022-11-29T22:56:06.278Z,9.70
2022-11-29T22:58:34.111Z,9.73
2022-11-29T23:01:02.747Z,9.38
2022-11-29T23:03:33.807Z,9.38
2022-11-29T23:06:06.144Z,9.15
2022-11-29T23:08:34.340Z,9.90
2022-11-29T23:11:04.075Z,9.68
2022-11-29T23:13:31.767Z,9.98
2022-11-29T23:15:59.812Z,9.95
2022-11-29T23:18:27.792Z,9.40
2022-11-29T23:21:02.068Z,9.38
2022-11-29T23:23:30.568Z,9.27
2022-11-29T23:25:58.439Z,9.65
2022-11-29T23:28:26.790Z,9.45
2022-11-29T23:30:54.990Z,9.63
2022-11-29T23:33:22.475Z,9.18
2022-11-29T23:35:50.586Z,9.57
2022-11-29T23:38:19.377Z,11.02
2022-11-29T23:40:46.924Z,11.00
2022-11-29T23:43:14.280Z,10.43
2022-11-29T23:45:42.140Z,10.52
2022-11-29T23:48:09.524Z,10.07
2022-11-29T23:50:37.123Z,8.85
2022-11-29T23:53:05.180Z,9.85
2022-11-29T23:55:33.934Z,10.65
2022-11-29T23:58:01.756Z,9.82
